createdAt,value
2018-05-01T00:01:47.220Z,10.03
2018-05-01T00:04:13.944Z,10.05
2018-05-01T00:06:39.929Z,9.91
2018-05-01T00:09:05.710Z,9.93
2018-05-01T00:11:31.445Z,9.87
2018-05-01T00:13:57.392Z,9.82
2018-05-01T00:16:23.172Z,9.81
2018-05-01T00:18:48.904Z,9.80
2018-05-01T00:21:14.632Z,9.84
2018-05-01T00:23:40.391Z,9.80
2018-05-01T00:26:06.552Z,9.81
2018-05-01T00:28:32.303Z,9.82
2018-05-01T00:30:58.123Z,9.77
2018-05-01T00:33:23.879Z,9.90
2018-05-01T00:35:49.609Z,9.95
2018-05-01T00:38:15.346Z,10.19
2018-05-01T00:40:41.084Z,10.40
2018-05-01T00:43:06.886Z,10.47
2018-05-01T00:45:32.621Z,10.58
2018-05-01T00:47:58.436Z,10.87
2018-05-01T00:50:24.156Z,10.96
2018-05-01T00:52:49.939Z,11.00
2018-05-01T00:55:15.676Z,11.15
2018-05-01T00:57:41.408Z,11.14
2018-05-01T01:00:07.228Z,11.18
2018-05-01T01:02:33.076Z,11.13
2018-05-01T01:04:58.831Z,11.13
2018-05-01T01:07:24.629Z,11.11
2018-05-01T01:09:50.408Z,11.27
2018-05-01T01:12:16.644Z,11.24
2018-05-01T01:14:42.467Z,11.27
2018-05-01T01:17:08.185Z,11.23
2018-05-01T01:19:33.925Z,11.23
2018-05-01T01:21:59.637Z,11.16
2018-05-01T01:24:25.375Z,11.26
2018-05-01T01:26:51.104Z,11.31
2018-05-01T01:29:16.823Z,11.37
2018-05-01T01:31:42.539Z,11.34
2018-05-01T01:34:08.264Z,11.31
2018-05-01T01:36:33.856Z,11.27
2018-05-01T01:38:59.623Z,11.32
2018-05-01T01:41:25.253Z,11.29
2018-05-01T01:43:50.864Z,11.32
2018-05-01T01:46:16.460Z,11.24
2018-05-01T01:48:42.056Z,11.28
2018-05-01T01:51:07.657Z,11.05
2018-05-01T01:53:33.260Z,10.87
2018-05-01T01:55:58.863Z,10.78
2018-05-01T01:58:24.476Z,10.71
2018-05-01T02:00:50.079Z,10.68
2018-05-01T02:03:15.675Z,10.60
2018-05-01T02:05:41.276Z,10.55
2018-05-01T02:08:06.884Z,10.48
2018-05-01T02:10:32.495Z,10.44
2018-05-01T02:12:58.091Z,10.44
2018-05-01T02:15:23.704Z,10.40
2018-05-01T02:17:49.331Z,10.35
2018-05-01T02:20:14.957Z,10.33
2018-05-01T02:22:40.565Z,10.30
2018-05-01T02:25:06.184Z,10.26
2018-05-01T02:27:31.780Z,10.20
2018-05-01T02:29:57.372Z,10.17
2018-05-01T02:32:22.985Z,10.12
2018-05-01T02:34:48.591Z,10.15
2018-05-01T02:37:14.208Z,10.06
2018-05-01T02:39:39.825Z,10.07
2018-05-01T02:42:05.443Z,10.00
2018-05-01T02:44:31.053Z,10.05
2018-05-01T02:46:56.669Z,9.98
2018-05-01T02:49:22.286Z,9.98
2018-05-01T02:51:47.904Z,10.00
2018-05-01T02:54:13.521Z,9.95
2018-05-01T02:56:39.182Z,9.94
2018-05-01T02:59:04.793Z,9.93
2018-05-01T03:01:30.409Z,9.97
2018-05-01T03:03:56.024Z,9.91
2018-05-01T03:06:21.646Z,9.93
2018-05-01T03:08:47.252Z,9.92
2018-05-01T03:11:12.871Z,9.90
2018-05-01T03:13:38.489Z,9.88
2018-05-01T03:16:04.093Z,9.88
2018-05-01T03:18:29.711Z,9.83
2018-05-01T03:20:55.304Z,9.81
2018-05-01T03:23:20.927Z,9.81
2018-05-01T03:25:46.537Z,9.78
2018-05-01T03:28:12.150Z,9.76
2018-05-01T03:30:37.752Z,9.76
2018-05-01T03:33:03.372Z,9.79
2018-05-01T03:35:28.988Z,9.77
2018-05-01T03:37:54.610Z,9.70
2018-05-01T03:40:20.216Z,9.74
2018-05-01T03:42:45.832Z,9.73
2018-05-01T03:45:11.448Z,9.77
2018-05-01T03:47:37.072Z,9.81
2018-05-01T03:50:02.683Z,9.75
2018-05-01T03:52:28.319Z,9.74
2018-05-01T03:54:53.922Z,9.76
2018-05-01T03:57:19.525Z,9.74
2018-05-01T03:59:45.141Z,9.74
2018-05-01T04:02:10.819Z,9.83
2018-05-01T04:04:36.388Z,9.82
2018-05-01T04:07:02.008Z,9.80
2018-05-01T04:09:27.627Z,9.79
2018-05-01T04:11:53.240Z,9.73
2018-05-01T04:14:18.858Z,9.68
2018-05-01T04:16:44.472Z,9.64
2018-05-01T04:19:10.092Z,9.52
2018-05-01T04:21:35.700Z,9.56
2018-05-01T04:24:01.312Z,9.49
2018-05-01T04:26:26.914Z,9.45
2018-05-01T04:28:52.552Z,9.39
2018-05-01T04:31:18.171Z,9.32
2018-05-01T04:33:43.790Z,9.29
2018-05-01T04:36:09.404Z,9.21
2018-05-01T04:38:35.013Z,9.14
2018-05-01T04:41:00.622Z,9.14
2018-05-01T04:43:26.216Z,9.11
2018-05-01T04:45:51.845Z,9.10
2018-05-01T04:48:17.476Z,9.09
2018-05-01T04:50:43.108Z,9.08
2018-05-01T04:53:08.726Z,9.12
2018-05-01T04:55:34.340Z,9.10
2018-05-01T04:57:59.962Z,9.13
2018-05-01T05:00:25.580Z,9.07
2018-05-01T05:02:51.189Z,9.05
2018-05-01T05:05:16.830Z,9.08
2018-05-01T05:07:42.443Z,9.07
2018-05-01T05:10:08.070Z,9.05
2018-05-01T05:12:33.690Z,9.02
2018-05-01T05:14:59.336Z,9.04
2018-05-01T05:17:24.936Z,8.94
2018-05-01T05:19:50.564Z,8.82
2018-05-01T05:22:16.180Z,8.76
2018-05-01T05:24:41.801Z,8.67
2018-05-01T05:27:07.416Z,8.54
2018-05-01T05:29:33.048Z,8.48
2018-05-01T05:31:58.668Z,8.44
2018-05-01T05:34:24.270Z,8.48
2018-05-01T05:36:49.888Z,8.46
2018-05-01T05:39:15.500Z,8.47
2018-05-01T05:41:41.119Z,8.52
2018-05-01T05:44:06.729Z,8.51
2018-05-01T05:46:32.345Z,8.50
2018-05-01T05:48:58.068Z,8.55
2018-05-01T05:51:23.587Z,8.56
2018-05-01T05:53:49.212Z,8.55
2018-05-01T05:56:14.829Z,8.50
2018-05-01T05:58:40.445Z,8.59
2018-05-01T06:01:06.095Z,8.72
2018-05-01T06:03:31.778Z,8.57
2018-05-01T06:05:57.336Z,8.47
2018-05-01T06:08:22.956Z,8.30
2018-05-01T06:10:48.624Z,8.19
2018-05-01T06:13:14.235Z,8.09
2018-05-01T06:15:39.861Z,8.01
2018-05-01T06:18:05.477Z,7.83
2018-05-01T06:20:31.110Z,7.70
2018-05-01T06:22:56.724Z,7.71
2018-05-01T06:25:22.336Z,7.65
2018-05-01T06:27:47.961Z,7.62
2018-05-01T06:30:13.584Z,7.45
2018-05-01T06:32:39.221Z,7.52
2018-05-01T06:35:04.832Z,7.43
2018-05-01T06:37:30.497Z,7.41
2018-05-01T06:39:56.076Z,7.39
2018-05-01T06:42:21.691Z,7.41
2018-05-01T06:44:47.306Z,7.38
2018-05-01T06:47:12.924Z,7.33
2018-05-01T06:49:38.537Z,7.35
2018-05-01T06:52:04.182Z,7.32
2018-05-01T06:54:29.792Z,7.39
2018-05-01T06:56:55.408Z,7.33
2018-05-01T06:59:21.021Z,7.38
2018-05-01T07:01:46.636Z,7.30
2018-05-01T07:04:12.260Z,7.34
2018-05-01T07:06:37.885Z,7.28
2018-05-01T07:09:03.500Z,7.22
2018-05-01T07:11:29.120Z,7.26
2018-05-01T07:13:54.744Z,7.30
2018-05-01T07:16:20.371Z,7.26
2018-05-01T07:18:45.999Z,7.29
2018-05-01T07:21:11.631Z,7.27
2018-05-01T07:23:37.233Z,7.28
2018-05-01T07:26:02.847Z,7.31
2018-05-01T07:28:28.448Z,7.39
2018-05-01T07:30:54.052Z,7.17
2018-05-01T07:33:19.665Z,7.15
2018-05-01T07:35:45.264Z,7.17
2018-05-01T07:38:10.883Z,7.22
2018-05-01T07:40:36.490Z,7.28
2018-05-01T07:43:02.118Z,7.13
2018-05-01T07:45:27.733Z,7.14
2018-05-01T07:47:53.349Z,6.96
2018-05-01T07:50:18.948Z,7.01
2018-05-01T07:52:44.577Z,6.92
2018-05-01T07:55:10.196Z,7.00
2018-05-01T07:57:35.823Z,7.01
2018-05-01T08:00:01.445Z,6.99
2018-05-01T08:02:27.077Z,6.81
2018-05-01T08:04:52.689Z,6.92
2018-05-01T08:07:18.295Z,6.88
2018-05-01T08:09:43.888Z,6.90
2018-05-01T08:12:09.547Z,6.92
2018-05-01T08:14:35.103Z,6.79
2018-05-01T08:17:00.719Z,6.79
2018-05-01T08:19:26.336Z,6.77
2018-05-01T08:21:51.958Z,6.83
2018-05-01T08:24:17.609Z,6.78
2018-05-01T08:26:43.190Z,6.80
2018-05-01T08:29:08.805Z,6.95
2018-05-01T08:31:34.443Z,6.92
2018-05-01T08:34:00.052Z,6.92
2018-05-01T08:36:25.672Z,6.85
2018-05-01T08:38:51.296Z,6.84
2018-05-01T08:41:16.918Z,6.83
2018-05-01T08:43:42.540Z,6.72
2018-05-01T08:46:08.157Z,6.80
2018-05-01T08:48:33.776Z,6.86
2018-05-01T08:50:59.372Z,6.79
2018-05-01T08:53:24.981Z,6.78
2018-05-01T08:55:50.587Z,6.85
2018-05-01T08:58:16.203Z,6.90
2018-05-01T09:00:41.803Z,6.90
2018-05-01T09:03:07.434Z,6.84
2018-05-01T09:05:33.044Z,6.92
2018-05-01T09:07:58.670Z,6.87
2018-05-01T09:10:24.294Z,6.85
2018-05-01T09:12:49.913Z,6.90
2018-05-01T09:15:15.540Z,6.86
2018-05-01T09:17:41.245Z,6.87
2018-05-01T09:20:06.801Z,6.88
2018-05-01T09:22:32.408Z,6.88
2018-05-01T09:24:58.027Z,6.87
2018-05-01T09:27:23.648Z,6.93
2018-05-01T09:29:49.269Z,6.90
2018-05-01T09:32:14.889Z,6.93
2018-05-01T09:34:40.501Z,6.96
2018-05-01T09:37:06.123Z,7.05
2018-05-01T09:39:31.758Z,7.01
2018-05-01T09:41:57.457Z,7.02
2018-05-01T09:44:23.009Z,7.14
2018-05-01T09:46:48.643Z,7.19
2018-05-01T09:49:14.252Z,7.21
2018-05-01T09:51:39.862Z,7.23
2018-05-01T09:54:05.608Z,7.26
2018-05-01T09:56:31.345Z,7.24
2018-05-01T09:58:57.077Z,7.26
2018-05-01T10:01:22.804Z,7.21
2018-05-01T10:03:48.560Z,7.29
2018-05-01T10:06:14.292Z,7.25
2018-05-01T10:08:40.033Z,7.37
2018-05-01T10:11:05.757Z,7.39
2018-05-01T10:13:31.509Z,7.39
2018-05-01T10:15:57.240Z,7.49
2018-05-01T10:18:22.971Z,7.48
2018-05-01T10:20:48.702Z,7.41
2018-05-01T10:23:14.445Z,7.39
2018-05-01T10:25:40.188Z,7.44
2018-05-01T10:28:05.941Z,7.45
2018-05-01T10:30:31.687Z,7.42
2018-05-01T10:32:57.458Z,7.40
2018-05-01T10:35:23.205Z,7.43
2018-05-01T10:37:48.960Z,7.42
2018-05-01T10:40:14.695Z,7.46
2018-05-01T10:42:40.435Z,7.44
2018-05-01T10:45:06.165Z,7.52
2018-05-01T10:47:31.904Z,7.51
2018-05-01T10:49:57.653Z,7.45
2018-05-01T10:52:23.412Z,7.52
2018-05-01T10:54:49.135Z,7.59
2018-05-01T10:57:14.864Z,7.64
2018-05-01T10:59:40.609Z,7.66
2018-05-01T11:02:06.349Z,7.79
2018-05-01T11:04:32.104Z,7.77
2018-05-01T11:06:57.841Z,7.82
2018-05-01T11:09:23.658Z,7.75
2018-05-01T11:11:49.326Z,7.79
2018-05-01T11:14:15.069Z,7.85
2018-05-01T11:16:40.820Z,7.83
2018-05-01T11:19:06.558Z,7.85
2018-05-01T11:21:32.296Z,7.82
2018-05-01T11:23:58.038Z,7.78
2018-05-01T11:26:23.781Z,7.92
2018-05-01T11:28:49.532Z,7.85
2018-05-01T11:31:15.875Z,7.91
2018-05-01T11:33:41.729Z,7.91
2018-05-01T11:36:07.400Z,7.90
2018-05-01T11:38:33.137Z,8.03
2018-05-01T11:40:58.881Z,7.99
2018-05-01T11:43:24.624Z,8.01
2018-05-01T11:45:50.345Z,8.09
2018-05-01T11:48:16.101Z,8.11
2018-05-01T11:50:41.825Z,8.08
2018-05-01T11:53:07.593Z,8.15
2018-05-01T11:55:33.333Z,8.14
2018-05-01T11:57:59.088Z,8.20
2018-05-01T12:00:24.836Z,8.17
2018-05-01T12:02:50.560Z,8.29
2018-05-01T12:05:16.309Z,8.23
2018-05-01T12:07:42.058Z,8.23
2018-05-01T12:10:07.808Z,8.12
2018-05-01T12:12:33.548Z,8.12
2018-05-01T12:14:59.281Z,8.28
2018-05-01T12:17:25.013Z,8.28
2018-05-01T12:19:50.764Z,8.29
2018-05-01T12:22:16.493Z,8.29
2018-05-01T12:24:42.236Z,8.28
2018-05-01T12:27:07.960Z,8.26
2018-05-01T12:29:33.695Z,8.30
2018-05-01T12:31:59.428Z,8.25
2018-05-01T12:34:25.167Z,8.35
2018-05-01T12:36:51.019Z,8.23
2018-05-01T12:39:16.645Z,8.34
2018-05-01T12:41:42.383Z,8.36
2018-05-01T12:44:08.154Z,8.30
2018-05-01T12:46:33.883Z,8.29
2018-05-01T12:48:59.630Z,8.21
2018-05-01T12:51:25.358Z,8.40
2018-05-01T12:53:51.108Z,8.45
2018-05-01T12:56:16.852Z,8.42
2018-05-01T12:58:42.615Z,8.39
2018-05-01T13:01:08.344Z,8.51
2018-05-01T13:03:34.071Z,8.24
2018-05-01T13:06:31.828Z,8.15
2018-05-01T13:08:58.716Z,8.14
2018-05-01T13:11:25.609Z,8.09
2018-05-01T13:13:52.518Z,8.06
2018-05-01T13:16:19.516Z,8.05
2018-05-01T13:18:46.393Z,8.14
2018-05-01T13:21:13.289Z,8.15
2018-05-01T13:23:40.158Z,8.12
2018-05-01T13:26:07.046Z,8.01
2018-05-01T13:28:33.915Z,7.92
2018-05-01T13:31:00.930Z,7.99
2018-05-01T13:33:27.809Z,8.09
2018-05-01T13:35:54.880Z,8.22
2018-05-01T13:38:21.888Z,8.19
2018-05-01T13:40:48.782Z,8.18
2018-05-01T13:43:15.660Z,8.26
2018-05-01T13:45:42.564Z,8.23
2018-05-01T13:48:09.461Z,8.13
2018-05-01T13:50:36.400Z,8.08
2018-05-01T13:53:03.264Z,8.07
2018-05-01T13:55:30.153Z,7.88
2018-05-01T13:57:57.061Z,7.75
2018-05-01T14:00:23.955Z,8.03
2018-05-01T14:02:50.845Z,8.07
2018-05-01T14:05:17.748Z,8.05
2018-05-01T14:07:44.656Z,8.08
2018-05-01T14:10:11.537Z,7.91
2018-05-01T14:12:38.407Z,8.01
2018-05-01T14:15:05.305Z,8.01
2018-05-01T14:17:32.176Z,7.94
2018-05-01T14:19:59.060Z,7.94
2018-05-01T14:22:25.936Z,7.93
2018-05-01T14:24:52.820Z,7.93
2018-05-01T14:27:19.713Z,7.87
2018-05-01T14:29:46.604Z,7.81
2018-05-01T14:32:20.279Z,7.78
2018-05-01T14:34:47.185Z,7.77
2018-05-01T14:37:14.091Z,7.83
2018-05-01T14:39:40.980Z,7.82
2018-05-01T14:42:07.876Z,7.82
2018-05-01T14:44:34.734Z,7.75
2018-05-01T14:47:01.636Z,7.57
2018-05-01T14:49:28.533Z,7.70
2018-05-01T14:51:55.420Z,7.63
2018-05-01T14:54:22.304Z,7.71
2018-05-01T14:56:49.188Z,7.61
2018-05-01T14:59:16.089Z,7.67
2018-05-01T15:01:42.994Z,7.55
2018-05-01T15:04:09.866Z,7.57
2018-05-01T15:06:36.778Z,7.58
2018-05-01T15:09:04.425Z,7.60
2018-05-01T15:11:31.228Z,7.54
2018-05-01T15:13:58.121Z,7.45
2018-05-01T15:16:25.010Z,7.42
2018-05-01T15:18:51.875Z,7.29
2018-05-01T15:21:18.759Z,7.25
2018-05-01T15:23:45.656Z,7.23
2018-05-01T15:26:12.540Z,7.18
2018-05-01T15:28:39.408Z,7.08
2018-05-01T15:31:06.305Z,7.10
2018-05-01T15:33:33.168Z,7.01
2018-05-01T15:36:00.045Z,7.02
2018-05-01T15:38:26.921Z,7.02
2018-05-01T15:40:53.797Z,7.05
2018-05-01T15:43:20.689Z,6.98
2018-05-01T15:45:47.591Z,6.95
2018-05-01T15:48:14.468Z,6.97
2018-05-01T15:50:41.357Z,7.03
2018-05-01T15:53:08.265Z,7.00
2018-05-01T15:55:35.144Z,7.01
2018-05-01T15:58:02.052Z,7.10
2018-05-01T16:00:28.935Z,7.12
2018-05-01T16:02:55.816Z,7.11
2018-05-01T16:05:22.705Z,7.17
2018-05-01T16:07:49.577Z,7.19
2018-05-01T16:10:16.484Z,7.20
2018-05-01T16:12:43.364Z,7.28
2018-05-01T16:15:10.268Z,7.35
2018-05-01T16:17:37.167Z,7.45
2018-05-01T16:20:04.084Z,7.46
2018-05-01T16:22:30.972Z,7.46
2018-05-01T16:24:57.856Z,7.50
2018-05-01T16:27:24.768Z,7.37
2018-05-01T16:29:51.685Z,7.34
2018-05-01T16:32:18.597Z,7.33
2018-05-01T16:34:45.472Z,7.30
2018-05-01T16:37:12.368Z,7.34
2018-05-01T16:39:39.265Z,7.30
2018-05-01T16:42:06.164Z,7.31
2018-05-01T16:44:33.040Z,7.35
2018-05-01T16:46:59.929Z,7.32
2018-05-01T16:49:26.792Z,7.31
2018-05-01T16:51:53.692Z,7.33
2018-05-01T16:54:20.578Z,7.27
2018-05-01T16:56:47.463Z,7.38
2018-05-01T16:59:14.345Z,7.33
2018-05-01T17:01:41.239Z,7.35
2018-05-01T17:04:08.159Z,7.33
2018-05-01T17:06:35.040Z,7.34
2018-05-01T17:09:01.928Z,7.35
2018-05-01T17:11:29.246Z,7.36
2018-05-01T17:13:56.308Z,7.38
2018-05-01T17:16:23.211Z,7.39
2018-05-01T17:18:50.125Z,7.42
2018-05-01T17:21:17.001Z,7.47
2018-05-01T17:23:43.861Z,7.44
2018-05-01T17:26:10.850Z,7.38
2018-05-01T17:28:37.926Z,7.39
2018-05-01T17:31:04.844Z,7.43
2018-05-01T17:33:31.733Z,7.47
2018-05-01T17:35:58.594Z,7.44
2018-05-01T17:38:25.480Z,7.44
2018-05-01T17:40:52.407Z,7.50
2018-05-01T17:43:19.280Z,7.46
2018-05-01T17:45:46.255Z,7.48
2018-05-01T17:48:13.147Z,7.48
2018-05-01T17:50:40.036Z,7.47
2018-05-01T17:53:06.941Z,7.42
2018-05-01T17:55:33.821Z,7.44
2018-05-01T17:58:00.719Z,7.49
2018-05-01T18:00:27.604Z,7.47
2018-05-01T18:02:54.488Z,7.50
2018-05-01T18:05:21.390Z,7.48
2018-05-01T18:07:48.264Z,7.48
2018-05-01T18:10:15.139Z,7.51
2018-05-01T18:12:42.164Z,7.45
2018-05-01T18:15:08.924Z,7.28
2018-05-01T18:17:35.829Z,7.21
2018-05-01T18:20:02.725Z,7.32
2018-05-01T18:22:29.612Z,7.29
2018-05-01T18:24:56.492Z,7.26
2018-05-01T18:27:23.394Z,7.23
2018-05-01T18:29:50.276Z,7.17
2018-05-01T18:32:17.153Z,7.10
2018-05-01T18:34:44.033Z,7.05
2018-05-01T18:37:10.921Z,7.00
2018-05-01T18:39:37.806Z,6.90
2018-05-01T18:42:04.692Z,6.84
2018-05-01T18:44:31.576Z,6.83
2018-05-01T18:46:58.463Z,6.80
2018-05-01T18:49:25.341Z,6.70
2018-05-01T18:51:52.224Z,6.62
2018-05-01T18:54:19.104Z,6.62
2018-05-01T18:56:45.976Z,6.57
2018-05-01T18:59:12.870Z,6.57
2018-05-01T19:01:39.789Z,6.60
2018-05-01T19:04:06.673Z,6.56
2018-05-01T19:06:33.547Z,6.52
2018-05-01T19:09:00.472Z,6.57
2018-05-01T19:11:27.364Z,6.48
2018-05-01T19:13:54.247Z,6.41
2018-05-01T19:16:21.181Z,6.38
2018-05-01T19:18:48.012Z,6.24
2018-05-01T19:21:14.911Z,6.31
2018-05-01T19:23:41.785Z,6.24
2018-05-01T19:26:08.696Z,6.17
2018-05-01T19:28:35.587Z,6.12
2018-05-01T19:31:02.470Z,6.05
2018-05-01T19:33:29.381Z,6.04
2018-05-01T19:35:56.275Z,6.02
2018-05-01T19:38:23.177Z,5.95
2018-05-01T19:40:50.092Z,5.98
2018-05-01T19:43:16.975Z,5.96
2018-05-01T19:45:43.848Z,5.84
2018-05-01T19:48:10.752Z,5.85
2018-05-01T19:50:37.632Z,5.86
2018-05-01T19:53:04.516Z,5.80
2018-05-01T19:55:31.399Z,5.81
2018-05-01T19:57:58.280Z,5.83
2018-05-01T20:00:25.156Z,5.80
2018-05-01T20:02:52.055Z,5.79
2018-05-01T20:05:18.941Z,5.74
2018-05-01T20:07:45.840Z,5.75
2018-05-01T20:10:12.713Z,5.70
2018-05-01T20:12:39.596Z,5.69
2018-05-01T20:15:06.484Z,5.64
2018-05-01T20:17:33.372Z,5.65
2018-05-01T20:20:00.297Z,5.67
2018-05-01T20:22:27.140Z,5.57
2018-05-01T20:24:54.029Z,5.52
2018-05-01T20:27:20.917Z,5.47
2018-05-01T20:29:47.804Z,5.44
2018-05-01T20:32:14.803Z,5.37
2018-05-01T20:34:41.692Z,5.27
2018-05-01T20:37:08.577Z,5.31
2018-05-01T20:39:35.465Z,5.35
2018-05-01T20:42:02.330Z,5.40
2018-05-01T20:44:29.265Z,5.40
2018-05-01T20:46:56.168Z,5.35
2018-05-01T20:49:23.049Z,5.42
2018-05-01T20:51:49.921Z,5.38
2018-05-01T20:54:16.796Z,5.31
2018-05-01T20:56:43.855Z,5.26
2018-05-01T20:59:12.120Z,5.22
2018-05-01T21:01:39.699Z,5.25
2018-05-01T21:04:06.915Z,5.20
2018-05-01T21:06:33.957Z,5.28
2018-05-01T21:09:01.290Z,5.06
2018-05-01T21:11:28.185Z,5.09
2018-05-01T21:13:55.091Z,4.95
2018-05-01T21:16:22.453Z,4.96
2018-05-01T21:18:50.847Z,4.82
2018-05-01T21:21:17.717Z,4.79
2018-05-01T21:23:44.639Z,4.74
2018-05-01T21:26:11.522Z,4.71
2018-05-01T21:28:38.402Z,4.49
2018-05-01T21:31:05.305Z,4.43
2018-05-01T21:33:32.180Z,4.46
2018-05-01T21:35:59.052Z,4.30
2018-05-01T21:38:25.945Z,4.13
2018-05-01T21:40:52.824Z,4.25
2018-05-01T21:43:19.697Z,4.23
2018-05-01T21:45:46.578Z,4.09
2018-05-01T21:48:13.485Z,4.03
2018-05-01T21:50:40.344Z,4.06
2018-05-01T21:53:07.225Z,4.09
2018-05-01T21:55:34.105Z,4.07
2018-05-01T21:58:00.972Z,3.98
2018-05-01T22:00:27.858Z,3.77
2018-05-01T22:02:54.726Z,4.03
2018-05-01T22:05:21.590Z,4.31
2018-05-01T22:07:48.473Z,4.45
2018-05-01T22:10:15.377Z,4.44
2018-05-01T22:12:42.246Z,4.50
2018-05-01T22:15:09.137Z,4.53
2018-05-01T22:17:36.011Z,4.68
2018-05-01T22:20:02.912Z,4.69
2018-05-01T22:22:29.788Z,4.74
2018-05-01T22:24:56.674Z,4.74
2018-05-01T22:27:23.554Z,4.68
2018-05-01T22:29:50.441Z,4.69
2018-05-01T22:32:17.322Z,4.77
2018-05-01T22:34:44.195Z,4.68
2018-05-01T22:37:11.069Z,4.59
2018-05-01T22:39:37.970Z,4.55
2018-05-01T22:42:04.859Z,4.70
2018-05-01T22:44:31.728Z,4.63
2018-05-01T22:46:58.613Z,4.63
2018-05-01T22:49:25.544Z,4.65
2018-05-01T22:51:52.382Z,4.51
2018-05-01T22:54:19.297Z,4.50
2018-05-01T22:56:46.184Z,4.56
2018-05-01T22:59:13.069Z,4.49
2018-05-01T23:01:39.977Z,4.41
2018-05-01T23:04:06.855Z,4.51
2018-05-01T23:06:33.748Z,4.48
2018-05-01T23:09:00.640Z,4.44
2018-05-01T23:11:27.532Z,4.41
2018-05-01T23:13:54.417Z,4.43
2018-05-01T23:16:21.325Z,4.48
2018-05-01T23:18:48.220Z,4.45
2018-05-01T23:21:15.121Z,4.48
2018-05-01T23:23:41.999Z,4.48
2018-05-01T23:26:08.895Z,4.39
2018-05-01T23:28:35.795Z,4.34
2018-05-01T23:31:02.700Z,4.35
2018-05-01T23:33:29.585Z,4.28
2018-05-01T23:35:56.472Z,4.23
2018-05-01T23:38:23.369Z,4.20
2018-05-01T23:40:50.259Z,4.24
2018-05-01T23:43:17.149Z,4.28
2018-05-01T23:45:44.032Z,4.34
2018-05-01T23:48:10.904Z,4.35
2018-05-01T23:50:37.797Z,4.36
2018-05-01T23:53:04.675Z,4.24
2018-05-01T23:55:31.553Z,4.26
2018-05-01T23:57:58.432Z,4.23
